createdAt,value
2023-12-23T00:00:26.975Z,20.53
2023-12-23T00:01:27.001Z,20.53
2023-12-23T00:02:26.983Z,20.54
2023-12-23T00:03:27.034Z,20.54
2023-12-23T00:04:27.018Z,20.53
2023-12-23T00:05:27.068Z,20.53
2023-12-23T00:06:27.010Z,20.53
2023-12-23T00:07:26.986Z,20.54
2023-12-23T00:08:29.896Z,20.53
2023-12-23T00:09:26.998Z,20.53
2023-12-23T00:10:27.035Z,20.53
2023-12-23T00:11:27.040Z,20.53
2023-12-23T00:12:27.063Z,20.53
2023-12-23T00:13:27.005Z,20.52
2023-12-23T00:14:27.000Z,20.53
2023-12-23T00:15:27.015Z,20.53
2023-12-23T00:16:27.039Z,20.53
2023-12-23T00:17:27.350Z,20.52
2023-12-23T00:18:27.143Z,20.53
2023-12-23T00:19:27.180Z,20.53
2023-12-23T00:20:27.039Z,20.53
2023-12-23T00:21:27.029Z,20.53
2023-12-23T00:22:27.036Z,20.53
2023-12-23T00:23:27.021Z,20.53
2023-12-23T00:24:27.023Z,20.53
2023-12-23T00:25:27.038Z,20.52
2023-12-23T00:26:27.040Z,20.52
2023-12-23T00:27:27.043Z,20.52
2023-12-23T00:28:27.036Z,20.52
2023-12-23T00:29:27.004Z,20.52
2023-12-23T00:30:27.078Z,20.52
2023-12-23T00:31:27.022Z,20.51
2023-12-23T00:32:27.053Z,20.52
2023-12-23T00:33:27.044Z,20.52
2023-12-23T00:34:27.033Z,20.52
2023-12-23T00:35:27.054Z,20.51
2023-12-23T00:36:27.048Z,20.51
2023-12-23T00:37:27.069Z,20.52
2023-12-23T00:38:27.036Z,20.51
2023-12-23T00:39:27.020Z,20.51
2023-12-23T00:40:27.034Z,20.51
2023-12-23T00:41:27.038Z,20.51
2023-12-23T00:42:27.034Z,20.51
2023-12-23T00:43:27.044Z,20.51
2023-12-23T00:44:27.059Z,20.51
2023-12-23T00:45:27.030Z,20.51
2023-12-23T00:46:27.048Z,20.51
2023-12-23T00:47:28.398Z,20.50
2023-12-23T00:48:27.182Z,20.51
2023-12-23T00:49:27.128Z,20.50
2023-12-23T00:50:27.064Z,20.51
2023-12-23T00:51:27.085Z,20.50
2023-12-23T00:52:27.062Z,20.50
2023-12-23T00:53:27.118Z,20.50
2023-12-23T00:54:27.065Z,20.50
2023-12-23T00:55:27.065Z,20.50
2023-12-23T00:56:27.071Z,20.50
2023-12-23T00:57:27.083Z,20.50
2023-12-23T00:58:27.061Z,20.50
2023-12-23T00:59:27.069Z,20.50
2023-12-23T01:00:27.123Z,20.50
2023-12-23T01:01:27.075Z,20.49
2023-12-23T01:02:27.072Z,20.49
2023-12-23T01:03:27.095Z,20.49
2023-12-23T01:04:27.094Z,20.49
2023-12-23T01:05:27.066Z,20.48
2023-12-23T01:06:27.112Z,20.49
2023-12-23T01:07:27.112Z,20.48
2023-12-23T01:08:27.162Z,20.49
2023-12-23T01:09:27.090Z,20.48
2023-12-23T01:10:27.099Z,20.48
2023-12-23T01:11:27.085Z,20.48
2023-12-23T01:12:27.105Z,20.48
2023-12-23T01:13:27.096Z,20.47
2023-12-23T01:14:27.093Z,20.48
2023-12-23T01:15:27.082Z,20.48
2023-12-23T01:16:27.104Z,20.47
2023-12-23T01:17:27.069Z,20.48
2023-12-23T01:18:27.160Z,20.47
2023-12-23T01:19:27.085Z,20.48
2023-12-23T01:20:27.142Z,20.47
2023-12-23T01:21:27.104Z,20.47
2023-12-23T01:22:27.091Z,20.47
2023-12-23T01:23:27.110Z,20.47
2023-12-23T01:24:27.109Z,20.47
2023-12-23T01:25:27.090Z,20.47
2023-12-23T01:26:27.103Z,20.47
2023-12-23T01:27:27.111Z,20.47
2023-12-23T01:28:27.117Z,20.47
2023-12-23T01:29:27.105Z,20.47
2023-12-23T01:30:27.108Z,20.46
2023-12-23T01:31:27.140Z,20.46
2023-12-23T01:32:27.178Z,20.47
2023-12-23T01:33:27.698Z,20.46
2023-12-23T01:34:27.102Z,20.46
2023-12-23T01:35:27.117Z,20.46
2023-12-23T01:36:27.109Z,20.46
2023-12-23T01:37:27.129Z,20.46
2023-12-23T01:38:27.144Z,20.45
2023-12-23T01:39:27.094Z,20.45
2023-12-23T01:40:27.101Z,20.45
2023-12-23T01:41:27.127Z,20.45
2023-12-23T01:42:27.147Z,20.45
2023-12-23T01:43:27.127Z,20.46
2023-12-23T01:44:27.107Z,20.46
2023-12-23T01:45:27.136Z,20.45
2023-12-23T01:46:27.156Z,20.45
2023-12-23T01:47:27.133Z,20.45
2023-12-23T01:48:27.185Z,20.44
2023-12-23T01:49:27.134Z,20.45
2023-12-23T01:50:27.157Z,20.44
2023-12-23T01:51:27.148Z,20.44
2023-12-23T01:52:27.164Z,20.44
2023-12-23T01:53:27.129Z,20.45
2023-12-23T01:54:27.668Z,20.44
2023-12-23T01:55:27.146Z,20.44
2023-12-23T01:56:27.149Z,20.44
2023-12-23T01:57:27.161Z,20.44
2023-12-23T01:58:27.155Z,20.43
2023-12-23T01:59:27.167Z,20.44
2023-12-23T02:00:27.144Z,20.43
2023-12-23T02:01:27.262Z,20.44
2023-12-23T02:02:27.227Z,20.43
2023-12-23T02:03:27.167Z,20.44
2023-12-23T02:04:27.157Z,20.43
2023-12-23T02:05:27.217Z,20.43
2023-12-23T02:06:27.208Z,20.43
2023-12-23T02:07:27.158Z,20.42
2023-12-23T02:08:27.184Z,20.43
2023-12-23T02:09:27.156Z,20.43
2023-12-23T02:10:27.155Z,20.43
2023-12-23T02:11:28.496Z,20.43
2023-12-23T02:12:27.148Z,20.42
2023-12-23T02:13:27.164Z,20.42
2023-12-23T02:14:27.198Z,20.42
2023-12-23T02:15:27.158Z,20.43
2023-12-23T02:16:27.150Z,20.42
2023-12-23T02:17:27.229Z,20.42
2023-12-23T02:18:28.814Z,20.42
2023-12-23T02:19:27.199Z,20.42
2023-12-23T02:20:27.175Z,20.42
2023-12-23T02:21:27.182Z,20.41
2023-12-23T02:22:27.172Z,20.41
2023-12-23T02:23:27.255Z,20.41
2023-12-23T02:24:27.193Z,20.41
2023-12-23T02:25:27.170Z,20.41
2023-12-23T02:26:27.180Z,20.41
2023-12-23T02:27:27.175Z,20.41
2023-12-23T02:28:27.181Z,20.40
2023-12-23T02:29:27.195Z,20.40
2023-12-23T02:30:27.235Z,20.40
2023-12-23T02:31:27.208Z,20.40
2023-12-23T02:32:27.219Z,20.40
2023-12-23T02:33:27.321Z,20.40
2023-12-23T02:34:27.199Z,20.40
2023-12-23T02:35:27.186Z,20.40
2023-12-23T02:36:27.192Z,20.40
2023-12-23T02:37:27.192Z,20.39
2023-12-23T02:38:27.210Z,20.39
2023-12-23T02:39:27.215Z,20.39
2023-12-23T02:40:27.204Z,20.39
2023-12-23T02:41:27.208Z,20.39
2023-12-23T02:42:27.206Z,20.38
2023-12-23T02:43:27.202Z,20.39
2023-12-23T02:44:27.200Z,20.39
2023-12-23T02:45:27.205Z,20.38
2023-12-23T02:46:27.211Z,20.38
2023-12-23T02:47:27.225Z,20.38
2023-12-23T02:48:27.269Z,20.38
2023-12-23T02:49:27.174Z,20.38
2023-12-23T02:50:27.242Z,20.37
2023-12-23T02:52:24.716Z,20.35
2023-12-23T02:53:24.794Z,20.36
2023-12-23T02:54:24.769Z,20.36
2023-12-23T02:55:24.752Z,20.37
2023-12-23T02:56:24.818Z,20.36
2023-12-23T02:57:24.740Z,20.36
2023-12-23T02:58:24.768Z,20.36
2023-12-23T02:59:24.771Z,20.36
2023-12-23T03:00:24.759Z,20.36
2023-12-23T03:01:24.754Z,20.35
2023-12-23T03:02:24.800Z,20.36
2023-12-23T03:03:24.765Z,20.35
2023-12-23T03:04:24.747Z,20.35
2023-12-23T03:05:24.891Z,20.35
2023-12-23T03:06:24.737Z,20.36
2023-12-23T03:07:24.761Z,20.35
2023-12-23T03:08:24.824Z,20.36
2023-12-23T03:09:24.723Z,20.36
2023-12-23T03:10:24.753Z,20.35
2023-12-23T03:11:24.753Z,20.35
2023-12-23T03:12:24.755Z,20.35
2023-12-23T03:13:24.791Z,20.35
2023-12-23T03:14:24.769Z,20.35
2023-12-23T03:15:24.757Z,20.35
2023-12-23T03:16:24.861Z,20.35
2023-12-23T03:17:24.785Z,20.34
2023-12-23T03:18:24.775Z,20.34
2023-12-23T03:19:25.223Z,20.34
2023-12-23T03:20:24.800Z,20.35
2023-12-23T03:21:24.776Z,20.35
2023-12-23T03:22:24.776Z,20.35
2023-12-23T03:23:24.826Z,20.34
2023-12-23T03:24:24.744Z,20.34
2023-12-23T03:25:24.838Z,20.34
2023-12-23T03:26:24.753Z,20.34
2023-12-23T03:27:24.790Z,20.34
2023-12-23T03:28:24.751Z,20.34
2023-12-23T03:29:24.831Z,20.33
2023-12-23T03:30:24.760Z,20.34
2023-12-23T03:31:24.768Z,20.33
2023-12-23T03:32:24.847Z,20.33
2023-12-23T03:33:24.840Z,20.33
2023-12-23T03:34:24.774Z,20.33
2023-12-23T03:35:24.795Z,20.33
2023-12-23T03:36:24.777Z,20.33
2023-12-23T03:37:24.796Z,20.33
2023-12-23T03:38:24.774Z,20.33
2023-12-23T03:39:24.771Z,20.32
2023-12-23T03:40:24.772Z,20.33
2023-12-23T03:41:24.769Z,20.33
2023-12-23T03:42:24.827Z,20.33
2023-12-23T03:43:24.788Z,20.32
2023-12-23T03:44:24.825Z,20.32
2023-12-23T03:45:24.764Z,20.32
2023-12-23T03:46:24.854Z,20.31
2023-12-23T03:47:24.800Z,20.33
2023-12-23T03:48:24.793Z,20.32
2023-12-23T03:49:24.759Z,20.32
2023-12-23T03:50:24.870Z,20.33
2023-12-23T03:51:24.783Z,20.32
2023-12-23T03:52:24.767Z,20.32
2023-12-23T03:53:24.851Z,20.32
2023-12-23T03:54:24.766Z,20.32
2023-12-23T03:55:24.806Z,20.33
2023-12-23T03:56:24.814Z,20.32
2023-12-23T03:57:24.779Z,20.31
2023-12-23T03:58:24.888Z,20.32
2023-12-23T03:59:24.926Z,20.31
2023-12-23T04:00:24.807Z,20.32
2023-12-23T04:01:24.817Z,20.31
2023-12-23T04:02:24.829Z,20.31
2023-12-23T04:03:24.841Z,20.31
2023-12-23T04:04:24.812Z,20.31
2023-12-23T04:05:24.890Z,20.32
2023-12-23T04:06:24.841Z,20.31
2023-12-23T04:07:24.809Z,20.32
2023-12-23T04:08:24.864Z,20.31
2023-12-23T04:09:24.833Z,20.31
2023-12-23T04:10:24.814Z,20.31
2023-12-23T04:11:24.812Z,20.31
2023-12-23T04:12:24.808Z,20.32
2023-12-23T04:13:24.831Z,20.31
2023-12-23T04:14:24.864Z,20.31
2023-12-23T04:15:24.805Z,20.31
2023-12-23T04:16:24.835Z,20.31
2023-12-23T04:17:24.918Z,20.32
2023-12-23T04:18:24.861Z,20.31
2023-12-23T04:19:24.823Z,20.31
2023-12-23T04:20:24.867Z,20.31
2023-12-23T04:21:24.873Z,20.31
2023-12-23T04:22:24.848Z,20.31
2023-12-23T04:23:24.962Z,20.31
2023-12-23T04:24:24.911Z,20.31
2023-12-23T04:25:24.935Z,20.31
2023-12-23T04:26:25.024Z,20.30
2023-12-23T04:27:24.986Z,20.30
2023-12-23T04:28:24.997Z,20.30
2023-12-23T04:29:25.061Z,20.30
2023-12-23T04:30:32.270Z,20.28
2023-12-23T04:31:39.556Z,20.27
2023-12-23T04:32:39.550Z,20.27
2023-12-23T04:33:39.539Z,20.29
2023-12-23T04:34:39.497Z,20.29
2023-12-23T04:35:39.445Z,20.30
2023-12-23T04:36:39.583Z,20.29
2023-12-23T04:37:39.496Z,20.30
2023-12-23T04:38:39.434Z,20.30
2023-12-23T04:39:39.487Z,20.29
2023-12-23T04:40:39.514Z,20.29
2023-12-23T04:41:39.457Z,20.29
2023-12-23T04:42:39.483Z,20.30
2023-12-23T04:43:39.526Z,20.30
2023-12-23T04:44:39.508Z,20.28
2023-12-23T04:45:39.491Z,20.30
2023-12-23T04:46:39.523Z,20.29
2023-12-23T04:47:39.568Z,20.29
2023-12-23T04:48:39.516Z,20.29
2023-12-23T04:49:39.550Z,20.29
2023-12-23T04:50:39.493Z,20.29
2023-12-23T04:51:39.486Z,20.30
2023-12-23T04:52:39.517Z,20.28
2023-12-23T04:53:39.483Z,20.30
2023-12-23T04:54:39.493Z,20.29
2023-12-23T04:55:39.504Z,20.28
2023-12-23T04:56:39.461Z,20.29
2023-12-23T04:57:39.470Z,20.28
2023-12-23T04:58:39.516Z,20.29
2023-12-23T04:59:39.480Z,20.28
2023-12-23T05:00:39.524Z,20.28
2023-12-23T05:01:39.539Z,20.29
2023-12-23T05:02:39.559Z,20.28
2023-12-23T05:03:39.489Z,20.28
2023-12-23T05:04:39.530Z,20.27
2023-12-23T05:05:39.569Z,20.28
2023-12-23T05:06:39.529Z,20.28
2023-12-23T05:07:39.604Z,20.27
2023-12-23T05:08:39.519Z,20.27
2023-12-23T05:09:39.513Z,20.27
2023-12-23T05:10:39.524Z,20.27
2023-12-23T05:11:39.513Z,20.27
2023-12-23T05:12:39.512Z,20.27
2023-12-23T05:13:39.572Z,20.27
2023-12-23T05:14:39.500Z,20.27
2023-12-23T05:15:39.533Z,20.27
2023-12-23T05:16:39.509Z,20.27
2023-12-23T05:17:39.725Z,20.27
2023-12-23T05:18:39.598Z,20.27
2023-12-23T05:19:39.555Z,20.28
2023-12-23T05:20:39.515Z,20.27
2023-12-23T05:21:39.523Z,20.27
2023-12-23T05:22:39.630Z,20.27
2023-12-23T05:23:39.521Z,20.27
2023-12-23T05:24:39.539Z,20.27
2023-12-23T05:25:39.565Z,20.27
2023-12-23T05:26:39.561Z,20.27
2023-12-23T05:27:39.515Z,20.27
2023-12-23T05:28:39.592Z,20.26
2023-12-23T05:29:39.512Z,20.27
2023-12-23T05:30:39.561Z,20.26
2023-12-23T05:31:39.674Z,20.27
2023-12-23T05:32:39.622Z,20.27
2023-12-23T05:33:39.628Z,20.27
2023-12-23T05:34:39.615Z,20.26
2023-12-23T05:35:39.518Z,20.26
2023-12-23T05:36:39.554Z,20.26
2023-12-23T05:37:39.635Z,20.26
2023-12-23T05:38:39.535Z,20.25
2023-12-23T05:39:39.540Z,20.25
2023-12-23T05:40:39.579Z,20.26
2023-12-23T05:41:39.585Z,20.25
2023-12-23T05:42:39.580Z,20.26
2023-12-23T05:43:39.566Z,20.25
2023-12-23T05:44:39.560Z,20.26
2023-12-23T05:45:39.562Z,20.25
2023-12-23T05:46:39.604Z,20.25
2023-12-23T05:47:39.669Z,20.25
2023-12-23T05:48:39.661Z,20.25
2023-12-23T05:49:39.641Z,20.25
2023-12-23T05:50:39.674Z,20.26
2023-12-23T05:51:39.691Z,20.25
2023-12-23T05:52:39.712Z,20.25
2023-12-23T05:53:39.742Z,20.25
2023-12-23T05:54:39.768Z,20.25
2023-12-23T05:55:39.909Z,20.24
2023-12-23T05:56:39.911Z,20.25
2023-12-23T05:57:39.845Z,20.25
2023-12-23T05:58:39.930Z,20.24
2023-12-23T05:59:39.914Z,20.25
2023-12-23T06:00:39.971Z,20.25
2023-12-23T06:01:40.022Z,20.24
2023-12-23T06:02:40.028Z,20.25
2023-12-23T06:03:40.104Z,20.25
2023-12-23T06:04:40.078Z,20.24
2023-12-23T06:05:40.177Z,20.24
2023-12-23T06:06:40.126Z,20.24
2023-12-23T06:07:40.184Z,20.24
2023-12-23T06:08:40.182Z,20.24
2023-12-23T06:09:40.184Z,20.24
2023-12-23T06:11:40.240Z,20.24
2023-12-23T06:12:40.214Z,20.24
2023-12-23T06:13:40.220Z,20.24
2023-12-23T06:14:40.235Z,20.25
2023-12-23T06:15:40.247Z,20.25
2023-12-23T06:16:40.312Z,20.24
2023-12-23T06:17:40.324Z,20.24
2023-12-23T06:18:40.309Z,20.24
2023-12-23T06:19:40.234Z,20.24
2023-12-23T06:20:40.209Z,20.24
2023-12-23T06:21:40.234Z,20.24
2023-12-23T06:22:40.240Z,20.24
2023-12-23T06:23:40.201Z,20.24
2023-12-23T06:24:40.220Z,20.24
2023-12-23T06:25:40.248Z,20.24
2023-12-23T06:26:42.883Z,20.24
2023-12-23T06:27:40.211Z,20.23
2023-12-23T06:28:40.238Z,20.23
2023-12-23T06:29:40.224Z,20.24
2023-12-23T06:30:40.272Z,20.23
2023-12-23T06:31:40.292Z,20.24
2023-12-23T06:32:40.304Z,20.24
2023-12-23T06:33:40.357Z,20.23
2023-12-23T06:34:40.290Z,20.23
2023-12-23T06:35:40.237Z,20.23
2023-12-23T06:36:40.239Z,20.23
2023-12-23T06:37:40.256Z,20.23
2023-12-23T06:38:40.260Z,20.23
2023-12-23T06:39:40.237Z,20.23
2023-12-23T06:40:40.294Z,20.23
2023-12-23T06:41:40.260Z,20.23
2023-12-23T06:42:40.234Z,20.23
2023-12-23T06:43:46.460Z,20.23
2023-12-23T06:44:41.299Z,20.22
2023-12-23T06:45:40.267Z,20.22
2023-12-23T06:46:40.297Z,20.23
2023-12-23T06:47:40.436Z,20.23
2023-12-23T06:48:40.545Z,20.23
2023-12-23T06:49:40.455Z,20.22
2023-12-23T06:50:40.303Z,20.23
2023-12-23T06:51:40.269Z,20.23
2023-12-23T06:52:40.322Z,20.22
2023-12-23T06:53:40.273Z,20.22
2023-12-23T06:54:40.266Z,20.23
2023-12-23T06:55:40.310Z,20.23
2023-12-23T06:56:40.306Z,20.22
2023-12-23T06:57:40.317Z,20.23
2023-12-23T06:58:40.312Z,20.22
2023-12-23T06:59:40.298Z,20.22
2023-12-23T07:00:40.333Z,20.22
2023-12-23T07:01:40.355Z,20.22
2023-12-23T07:02:40.324Z,20.22
2023-12-23T07:03:40.484Z,20.22
2023-12-23T07:04:40.409Z,20.22
2023-12-23T07:05:40.695Z,20.22
2023-12-23T07:06:40.438Z,20.22
2023-12-23T07:07:40.520Z,20.22
2023-12-23T07:08:40.519Z,20.22
2023-12-23T07:09:40.582Z,20.22
2023-12-23T07:10:40.635Z,20.22
2023-12-23T07:11:40.620Z,20.22
2023-12-23T07:12:40.639Z,20.22
2023-12-23T07:13:40.736Z,20.22
2023-12-23T07:14:40.700Z,20.22
2023-12-23T07:15:40.754Z,20.22
2023-12-23T07:16:40.791Z,20.22
2023-12-23T07:17:42.176Z,20.22
2023-12-23T07:18:40.926Z,20.22
2023-12-23T07:19:40.923Z,20.22
2023-12-23T07:20:40.960Z,20.22
2023-12-23T07:21:40.928Z,20.23
2023-12-23T07:22:41.013Z,20.22
2023-12-23T07:23:41.021Z,20.22
2023-12-23T07:24:41.061Z,20.22
2023-12-23T07:25:41.281Z,20.23
2023-12-23T07:26:41.109Z,20.22
2023-12-23T07:27:41.131Z,20.22
2023-12-23T07:28:41.209Z,20.22
2023-12-23T07:29:42.114Z,20.23
2023-12-23T07:30:41.252Z,20.22
2023-12-23T07:31:41.266Z,20.22
2023-12-23T07:32:41.349Z,20.23
2023-12-23T07:33:41.362Z,20.23
2023-12-23T07:34:41.417Z,20.22
2023-12-23T07:35:41.397Z,20.22
2023-12-23T07:36:41.427Z,20.23
2023-12-23T07:37:41.466Z,20.22
2023-12-23T07:38:41.504Z,20.23
2023-12-23T07:39:41.529Z,20.22
2023-12-23T07:40:41.644Z,20.23
2023-12-23T07:41:41.607Z,20.23
2023-12-23T07:42:41.633Z,20.23
2023-12-23T07:43:41.767Z,20.22
2023-12-23T07:44:41.720Z,20.23
2023-12-23T07:45:41.736Z,20.23
2023-12-23T07:46:41.757Z,20.22
2023-12-23T07:47:41.831Z,20.22
2023-12-23T07:48:41.859Z,20.22
2023-12-23T07:49:41.870Z,20.23
2023-12-23T07:50:41.918Z,20.22
2023-12-23T07:51:41.945Z,20.23
2023-12-23T07:52:41.974Z,20.23
2023-12-23T07:53:42.080Z,20.22
2023-12-23T07:54:42.018Z,20.23
2023-12-23T07:55:42.219Z,20.22
2023-12-23T07:56:42.083Z,20.22
2023-12-23T07:57:42.137Z,20.22
2023-12-23T07:58:42.245Z,20.23
2023-12-23T07:59:45.338Z,20.22
2023-12-23T08:00:42.222Z,20.22
2023-12-23T08:01:42.265Z,20.23
2023-12-23T08:02:42.216Z,20.22
2023-12-23T08:03:42.231Z,20.23
2023-12-23T08:04:42.248Z,20.23
2023-12-23T08:05:42.302Z,20.22
2023-12-23T08:06:42.236Z,20.23
2023-12-23T08:07:42.230Z,20.22
2023-12-23T08:08:42.198Z,20.22
2023-12-23T08:09:42.226Z,20.22
2023-12-23T08:10:42.339Z,20.22
2023-12-23T08:11:42.210Z,20.22
2023-12-23T08:12:42.210Z,20.22
2023-12-23T08:13:42.354Z,20.22
2023-12-23T08:14:42.194Z,20.22
2023-12-23T08:15:42.219Z,20.22
2023-12-23T08:16:42.234Z,20.21
2023-12-23T08:17:42.253Z,20.22
2023-12-23T08:18:42.413Z,20.22
2023-12-23T08:19:42.259Z,20.22
2023-12-23T08:20:42.243Z,20.22
2023-12-23T08:21:42.243Z,20.22
2023-12-23T08:22:42.334Z,20.22
2023-12-23T08:23:42.260Z,20.22
2023-12-23T08:24:42.242Z,20.22
2023-12-23T08:25:42.281Z,20.22
2023-12-23T08:26:42.243Z,20.22
2023-12-23T08:27:42.245Z,20.22
2023-12-23T08:28:43.916Z,20.22
2023-12-23T08:29:42.248Z,20.22
2023-12-23T08:30:42.279Z,20.21
2023-12-23T08:31:42.298Z,20.22
2023-12-23T08:32:42.317Z,20.22
2023-12-23T08:33:42.418Z,20.22
2023-12-23T08:34:42.258Z,20.22
2023-12-23T08:35:42.950Z,20.23
2023-12-23T08:36:42.229Z,20.22
2023-12-23T08:37:42.297Z,20.23
2023-12-23T08:38:44.968Z,20.23
2023-12-23T08:39:42.236Z,20.22
2023-12-23T08:40:42.307Z,20.22
2023-12-23T08:41:42.252Z,20.22
2023-12-23T08:42:42.249Z,20.23
2023-12-23T08:43:42.293Z,20.23
2023-12-23T08:44:42.241Z,20.23
2023-12-23T08:45:42.250Z,20.23
2023-12-23T08:46:42.273Z,20.23
2023-12-23T08:47:42.345Z,20.23
2023-12-23T08:48:42.358Z,20.23
2023-12-23T08:49:42.302Z,20.23
2023-12-23T08:50:42.252Z,20.23
2023-12-23T08:51:42.265Z,20.24
2023-12-23T08:52:42.275Z,20.24
2023-12-23T08:53:42.256Z,20.24
2023-12-23T08:54:42.832Z,20.23
2023-12-23T08:55:42.415Z,20.23
2023-12-23T08:56:42.263Z,20.23
2023-12-23T08:57:42.262Z,20.25
2023-12-23T08:58:42.352Z,20.24
2023-12-23T08:59:42.262Z,20.24
2023-12-23T09:00:42.414Z,20.24
2023-12-23T09:01:42.342Z,20.25
2023-12-23T09:02:42.267Z,20.24
2023-12-23T09:03:42.325Z,20.25
2023-12-23T09:04:42.295Z,20.25
2023-12-23T09:05:42.365Z,20.25
2023-12-23T09:06:42.258Z,20.25
2023-12-23T09:07:42.388Z,20.25
2023-12-23T09:08:42.358Z,20.25
2023-12-23T09:09:42.268Z,20.25
2023-12-23T09:10:42.365Z,20.26
2023-12-23T09:11:42.304Z,20.25
2023-12-23T09:12:42.280Z,20.25
2023-12-23T09:13:42.285Z,20.26
2023-12-23T09:14:42.282Z,20.27
2023-12-23T09:15:42.258Z,20.26
2023-12-23T09:16:42.371Z,20.27
2023-12-23T09:17:42.487Z,20.27
2023-12-23T09:18:42.398Z,20.27
2023-12-23T09:19:42.307Z,20.27
2023-12-23T09:20:42.281Z,20.27
2023-12-23T09:21:42.294Z,20.27
2023-12-23T09:22:42.314Z,20.27
2023-12-23T09:23:42.270Z,20.27
2023-12-23T09:24:43.171Z,20.27
2023-12-23T09:25:42.340Z,20.27
2023-12-23T09:26:44.171Z,20.27
2023-12-23T09:27:42.293Z,20.27
2023-12-23T09:28:42.359Z,20.27
2023-12-23T09:29:42.322Z,20.28
2023-12-23T09:30:42.359Z,20.28
2023-12-23T09:31:42.407Z,20.28
2023-12-23T09:32:42.369Z,20.28
2023-12-23T09:33:42.429Z,20.29
2023-12-23T09:34:42.351Z,20.28
2023-12-23T09:35:42.365Z,20.28
2023-12-23T09:36:42.317Z,20.29
2023-12-23T09:37:42.330Z,20.28
2023-12-23T09:38:42.319Z,20.29
2023-12-23T09:39:42.308Z,20.30
2023-12-23T09:40:42.392Z,20.29
2023-12-23T09:41:42.322Z,20.28
2023-12-23T09:42:42.390Z,20.29
2023-12-23T09:43:42.413Z,20.29
2023-12-23T09:44:42.326Z,20.29
2023-12-23T09:45:42.312Z,20.28
2023-12-23T09:46:42.435Z,20.29
2023-12-23T09:47:42.537Z,20.29
2023-12-23T09:48:42.382Z,20.28
2023-12-23T09:49:42.410Z,20.28
2023-12-23T09:50:42.426Z,20.28
2023-12-23T09:51:42.411Z,20.29
2023-12-23T09:52:42.464Z,20.28
2023-12-23T09:53:42.538Z,20.28
2023-12-23T09:54:42.495Z,20.27
2023-12-23T09:55:42.573Z,20.28
2023-12-23T09:56:42.523Z,20.27
2023-12-23T09:57:42.547Z,20.28
2023-12-23T09:58:42.652Z,20.27
2023-12-23T09:59:42.620Z,20.27
2023-12-23T10:00:42.665Z,20.27
2023-12-23T10:01:42.687Z,20.27
2023-12-23T10:02:42.709Z,20.27
2023-12-23T10:03:42.729Z,20.28
2023-12-23T10:04:42.776Z,20.27
2023-12-23T10:05:42.820Z,20.27
2023-12-23T10:06:42.855Z,20.27
2023-12-23T10:07:42.835Z,20.27
2023-12-23T10:08:42.817Z,20.28
2023-12-23T10:09:42.876Z,20.27
2023-12-23T10:10:42.902Z,20.28
2023-12-23T10:11:42.926Z,20.27
2023-12-23T10:12:42.914Z,20.28
2023-12-23T10:13:42.992Z,20.28
2023-12-23T10:14:42.997Z,20.27
2023-12-23T10:15:43.001Z,20.27
2023-12-23T10:16:44.691Z,20.27
2023-12-23T10:17:43.196Z,20.27
2023-12-23T10:18:43.073Z,20.28
2023-12-23T10:19:43.067Z,20.28
2023-12-23T10:20:43.049Z,20.28
2023-12-23T10:21:43.197Z,20.28
2023-12-23T10:22:43.066Z,20.28
2023-12-23T10:23:43.052Z,20.28
2023-12-23T10:24:43.021Z,20.28
2023-12-23T10:25:43.090Z,20.28
2023-12-23T10:26:43.053Z,20.28
2023-12-23T10:27:43.691Z,20.28
2023-12-23T10:28:44.100Z,20.28
2023-12-23T10:29:43.170Z,20.29
2023-12-23T10:30:43.258Z,20.28
2023-12-23T10:31:43.251Z,20.29
2023-12-23T10:32:43.303Z,20.29
2023-12-23T10:33:44.179Z,20.29
2023-12-23T10:34:43.349Z,20.29
2023-12-23T10:35:43.346Z,20.29
2023-12-23T10:36:43.378Z,20.30
2023-12-23T10:37:43.454Z,20.30
2023-12-23T10:38:43.397Z,20.29
2023-12-23T10:39:43.433Z,20.29
2023-12-23T10:40:43.487Z,20.29
2023-12-23T10:41:43.504Z,20.29
2023-12-23T10:42:43.522Z,20.29
2023-12-23T10:43:43.535Z,20.30
2023-12-23T10:44:43.552Z,20.29
2023-12-23T10:45:43.600Z,20.30
2023-12-23T10:46:43.683Z,20.30
2023-12-23T10:47:43.838Z,20.30
2023-12-23T10:48:43.687Z,20.30
2023-12-23T10:49:43.730Z,20.30
2023-12-23T10:50:43.724Z,20.29
2023-12-23T10:51:43.759Z,20.28
2023-12-23T10:52:43.834Z,20.29
2023-12-23T10:53:43.781Z,20.28
2023-12-23T10:54:43.834Z,20.29
2023-12-23T10:55:43.884Z,20.29
2023-12-23T10:56:43.895Z,20.29
2023-12-23T10:57:43.921Z,20.28
2023-12-23T10:58:44.013Z,20.29
2023-12-23T10:59:43.991Z,20.28
2023-12-23T11:00:44.128Z,20.28
2023-12-23T11:01:44.114Z,20.28
2023-12-23T11:02:44.066Z,20.28
2023-12-23T11:03:44.139Z,20.28
2023-12-23T11:04:44.238Z,20.28
2023-12-23T11:05:44.262Z,20.29
2023-12-23T11:06:44.212Z,20.29
2023-12-23T11:07:44.327Z,20.29
2023-12-23T11:08:44.278Z,20.29
2023-12-23T11:09:44.315Z,20.29
2023-12-23T11:10:44.414Z,20.30
2023-12-23T11:11:44.385Z,20.29
2023-12-23T11:12:44.483Z,20.30
2023-12-23T11:13:44.435Z,20.30
2023-12-23T11:14:44.415Z,20.30
2023-12-23T11:15:44.475Z,20.30
2023-12-23T11:16:44.596Z,20.30
2023-12-23T11:17:44.545Z,20.31
2023-12-23T11:18:44.678Z,20.31
2023-12-23T11:19:44.615Z,20.31
2023-12-23T11:20:44.580Z,20.31
2023-12-23T11:21:44.610Z,20.31
2023-12-23T11:22:44.674Z,20.31
2023-12-23T11:23:44.650Z,20.31
2023-12-23T11:24:44.720Z,20.32
2023-12-23T11:25:44.753Z,20.31
2023-12-23T11:26:44.790Z,20.32
2023-12-23T11:27:44.777Z,20.31
2023-12-23T11:28:44.850Z,20.32
2023-12-23T11:29:44.844Z,20.31
2023-12-23T11:30:44.906Z,20.32
2023-12-23T11:31:45.327Z,20.31
2023-12-23T11:32:44.904Z,20.32
2023-12-23T11:33:44.972Z,20.31
2023-12-23T11:34:45.000Z,20.31
2023-12-23T11:35:45.005Z,20.31
2023-12-23T11:36:45.033Z,20.31
2023-12-23T11:37:45.103Z,20.32
2023-12-23T11:38:45.094Z,20.31
2023-12-23T11:39:45.099Z,20.31
2023-12-23T11:40:45.150Z,20.31
2023-12-23T11:41:45.233Z,20.32
2023-12-23T11:42:45.188Z,20.31
2023-12-23T11:43:45.269Z,20.32
2023-12-23T11:44:45.241Z,20.31
2023-12-23T11:45:45.273Z,20.32
2023-12-23T11:46:45.304Z,20.32
2023-12-23T11:47:45.344Z,20.32
2023-12-23T11:48:45.368Z,20.33
2023-12-23T11:49:45.437Z,20.32
2023-12-23T11:50:45.369Z,20.32
2023-12-23T11:51:45.437Z,20.32
2023-12-23T11:52:45.519Z,20.31
2023-12-23T11:53:45.587Z,20.32
2023-12-23T11:54:45.471Z,20.32
2023-12-23T11:55:45.575Z,20.31
2023-12-23T11:56:45.531Z,20.31
2023-12-23T11:57:45.568Z,20.32
2023-12-23T11:58:45.666Z,20.31
2023-12-23T11:59:45.626Z,20.31
2023-12-23T12:00:45.699Z,20.32
2023-12-23T12:01:45.728Z,20.31
2023-12-23T12:02:45.705Z,20.31
2023-12-23T12:03:45.751Z,20.32
2023-12-23T12:04:47.594Z,20.32
2023-12-23T12:05:45.852Z,20.31
2023-12-23T12:06:45.807Z,20.32
2023-12-23T12:07:45.878Z,20.31
2023-12-23T12:08:45.881Z,20.32
2023-12-23T12:09:45.899Z,20.31
2023-12-23T12:10:45.938Z,20.31
2023-12-23T12:11:45.958Z,20.31
2023-12-23T12:12:45.984Z,20.31
2023-12-23T12:13:46.008Z,20.31
2023-12-23T12:14:46.046Z,20.31
2023-12-23T12:15:46.079Z,20.31
2023-12-23T12:16:46.085Z,20.31
2023-12-23T12:17:46.269Z,20.31
2023-12-23T12:18:46.249Z,20.32
2023-12-23T12:19:46.227Z,20.31
2023-12-23T12:20:46.230Z,20.31
2023-12-23T12:21:46.244Z,20.30
2023-12-23T12:22:47.857Z,20.31
2023-12-23T12:23:46.321Z,20.31
2023-12-23T12:24:46.275Z,20.30
2023-12-23T12:25:46.377Z,20.31
2023-12-23T12:26:46.367Z,20.30
2023-12-23T12:27:46.398Z,20.31
2023-12-23T12:28:47.811Z,20.31
2023-12-23T12:29:46.422Z,20.30
2023-12-23T12:30:46.518Z,20.31
2023-12-23T12:31:46.512Z,20.30
2023-12-23T12:32:46.673Z,20.31
2023-12-23T12:33:46.643Z,20.31
2023-12-23T12:34:48.286Z,20.31
2023-12-23T12:35:46.620Z,20.31
2023-12-23T12:36:46.647Z,20.31
2023-12-23T12:37:46.737Z,20.31
2023-12-23T12:38:46.803Z,20.31
2023-12-23T12:39:46.707Z,20.32
2023-12-23T12:40:46.791Z,20.31
2023-12-23T12:41:46.741Z,20.31
2023-12-23T12:42:46.808Z,20.32
2023-12-23T12:43:46.884Z,20.32
2023-12-23T12:44:46.827Z,20.32
2023-12-23T12:45:46.864Z,20.31
2023-12-23T12:46:46.907Z,20.31
2023-12-23T12:47:47.005Z,20.31
2023-12-23T12:48:47.143Z,20.31
2023-12-23T12:49:55.739Z,20.32
2023-12-23T12:50:48.084Z,20.31
2023-12-23T12:51:47.014Z,20.31
2023-12-23T12:52:48.351Z,20.32
2023-12-23T12:53:47.023Z,20.32
2023-12-23T12:54:47.025Z,20.32